createdAt,value
2017-07-07T00:00:07.132Z,995.6
2017-07-07T00:00:27.454Z,995.7
2017-07-07T00:00:47.739Z,995.7
2017-07-07T00:01:08.026Z,995.7
2017-07-07T00:01:28.349Z,995.7
2017-07-07T00:01:48.602Z,995.7
2017-07-07T00:02:08.885Z,995.6
2017-07-07T00:02:29.178Z,995.6
2017-07-07T00:02:49.485Z,995.6
2017-07-07T00:03:09.760Z,995.7
2017-07-07T00:03:30.051Z,995.6
2017-07-07T00:03:50.371Z,995.6
2017-07-07T00:04:10.656Z,995.6
2017-07-07T00:04:30.969Z,995.6
2017-07-07T00:04:51.278Z,995.6
2017-07-07T00:05:11.584Z,995.6
2017-07-07T00:05:31.896Z,995.6
2017-07-07T00:05:52.176Z,995.6
2017-07-07T00:06:12.478Z,995.6
2017-07-07T00:06:32.843Z,995.6
2017-07-07T00:06:53.217Z,995.6
2017-07-07T00:07:13.634Z,995.6
2017-07-07T00:07:34.051Z,995.6
2017-07-07T00:07:54.723Z,995.6
2017-07-07T00:08:15.170Z,995.6
2017-07-07T00:08:35.780Z,995.6
2017-07-07T00:08:57.286Z,995.6
2017-07-07T00:09:17.584Z,995.6
2017-07-07T00:09:37.946Z,995.7
2017-07-07T00:09:58.469Z,995.6
2017-07-07T00:10:18.834Z,995.6
2017-07-07T00:10:39.121Z,995.6
2017-07-07T00:10:59.612Z,995.6
2017-07-07T00:11:20.761Z,995.7
2017-07-07T00:11:41.050Z,995.6
2017-07-07T00:12:01.336Z,995.6
2017-07-07T00:12:21.608Z,995.6
2017-07-07T00:12:41.922Z,995.7
2017-07-07T00:13:02.199Z,995.6
2017-07-07T00:13:22.523Z,995.6
2017-07-07T00:13:42.804Z,995.6
2017-07-07T00:14:03.133Z,995.6
2017-07-07T00:14:23.478Z,995.6
2017-07-07T00:14:43.774Z,995.6
2017-07-07T00:15:04.783Z,995.5
2017-07-07T00:15:25.089Z,995.5
2017-07-07T00:15:45.385Z,995.5
2017-07-07T00:16:05.650Z,995.5
2017-07-07T00:16:25.928Z,995.5
2017-07-07T00:16:46.226Z,995.5
2017-07-07T00:17:06.573Z,995.6
2017-07-07T00:17:26.906Z,995.6
2017-07-07T00:17:47.212Z,995.6
2017-07-07T00:18:07.488Z,995.6
2017-07-07T00:18:27.763Z,995.6
2017-07-07T00:18:48.039Z,995.6
2017-07-07T00:19:08.316Z,995.5
2017-07-07T00:19:28.585Z,995.5
2017-07-07T00:19:48.888Z,995.6
2017-07-07T00:20:09.174Z,995.5
2017-07-07T00:20:29.449Z,995.5
2017-07-07T00:20:49.829Z,995.5
2017-07-07T00:21:10.104Z,995.5
2017-07-07T00:21:30.381Z,995.5
2017-07-07T00:21:50.654Z,995.5
2017-07-07T00:22:10.909Z,995.4
2017-07-07T00:22:31.189Z,995.5
2017-07-07T00:22:51.488Z,995.4
2017-07-07T00:23:11.853Z,995.5
2017-07-07T00:23:32.123Z,995.4
2017-07-07T00:23:52.432Z,995.4
2017-07-07T00:24:12.711Z,995.4
2017-07-07T00:24:32.981Z,995.4
2017-07-07T00:24:53.306Z,995.4
2017-07-07T00:25:13.628Z,995.4
2017-07-07T00:25:33.932Z,995.4
2017-07-07T00:25:54.294Z,995.4
2017-07-07T00:26:14.600Z,995.4
2017-07-07T00:26:34.869Z,995.4
2017-07-07T00:26:55.142Z,995.4
2017-07-07T00:27:15.406Z,995.4
2017-07-07T00:27:35.764Z,995.4
2017-07-07T00:27:56.049Z,995.4
2017-07-07T00:28:16.370Z,995.4
2017-07-07T00:28:36.643Z,995.4
2017-07-07T00:28:56.906Z,995.4
2017-07-07T00:29:17.222Z,995.4
2017-07-07T00:29:37.565Z,995.4
2017-07-07T00:29:57.899Z,995.4
2017-07-07T00:30:18.174Z,995.4
2017-07-07T00:30:38.457Z,995.4
2017-07-07T00:30:58.810Z,995.4
2017-07-07T00:31:19.081Z,995.5
2017-07-07T00:31:39.411Z,995.5
2017-07-07T00:31:59.698Z,995.5
2017-07-07T00:32:19.975Z,995.5
2017-07-07T00:32:40.343Z,995.5
2017-07-07T00:33:00.618Z,995.5
2017-07-07T00:33:20.887Z,995.5
2017-07-07T00:33:41.162Z,995.5
2017-07-07T00:34:01.432Z,995.5
2017-07-07T00:34:21.708Z,995.4
2017-07-07T00:34:41.997Z,995.5
2017-07-07T00:35:02.293Z,995.5
2017-07-07T00:35:22.574Z,995.5
2017-07-07T00:35:42.856Z,995.5
2017-07-07T00:36:03.138Z,995.5
2017-07-07T00:36:23.408Z,995.5
2017-07-07T00:36:43.720Z,995.5
2017-07-07T00:37:03.979Z,995.5
2017-07-07T00:37:24.235Z,995.5
2017-07-07T00:37:44.502Z,995.5
2017-07-07T00:38:04.830Z,995.5
2017-07-07T00:38:25.098Z,995.5
2017-07-07T00:38:45.373Z,995.5
2017-07-07T00:39:05.646Z,995.5
2017-07-07T00:39:25.953Z,995.5
2017-07-07T00:39:46.268Z,995.5
2017-07-07T00:40:06.554Z,995.5
2017-07-07T00:40:26.841Z,995.5
2017-07-07T00:40:47.108Z,995.5
2017-07-07T00:41:07.392Z,995.5
2017-07-07T00:41:27.683Z,995.6
2017-07-07T00:41:48.013Z,995.5
2017-07-07T00:42:08.335Z,995.5
2017-07-07T00:42:28.645Z,995.6
2017-07-07T00:42:48.927Z,995.5
2017-07-07T00:43:09.214Z,995.6
2017-07-07T00:43:29.492Z,995.6
2017-07-07T00:43:49.760Z,995.6
2017-07-07T00:44:10.050Z,995.7
2017-07-07T00:44:30.379Z,995.6
2017-07-07T00:44:50.647Z,995.6
2017-07-07T00:45:10.923Z,995.7
2017-07-07T00:45:31.196Z,995.6
2017-07-07T00:45:51.548Z,995.6
2017-07-07T00:46:11.809Z,995.6
2017-07-07T00:46:32.077Z,995.6
2017-07-07T00:46:52.404Z,995.6
2017-07-07T00:47:12.704Z,995.5
2017-07-07T00:47:32.967Z,995.5
2017-07-07T00:47:53.223Z,995.5
2017-07-07T00:48:13.549Z,995.5
2017-07-07T00:48:33.859Z,995.5
2017-07-07T00:48:54.132Z,995.5
2017-07-07T00:49:14.401Z,995.5
2017-07-07T00:49:34.667Z,995.5
2017-07-07T00:49:54.930Z,995.5
2017-07-07T00:50:15.230Z,995.5
2017-07-07T00:50:35.495Z,995.5
2017-07-07T00:50:55.758Z,995.6
2017-07-07T00:51:16.062Z,995.6
2017-07-07T00:51:36.320Z,995.6
2017-07-07T00:51:56.584Z,995.6
2017-07-07T00:52:16.844Z,995.6
2017-07-07T00:52:37.111Z,995.6
2017-07-07T00:52:57.395Z,995.6
2017-07-07T00:53:17.742Z,995.6
2017-07-07T00:53:38.008Z,995.6
2017-07-07T00:53:58.279Z,995.6
2017-07-07T00:54:18.526Z,995.5
2017-07-07T00:54:38.796Z,995.5
2017-07-07T00:54:59.100Z,995.5
2017-07-07T00:55:19.408Z,995.5
2017-07-07T00:55:39.712Z,995.5
2017-07-07T00:55:59.977Z,995.5
2017-07-07T00:56:20.238Z,995.5
2017-07-07T00:56:40.537Z,995.5
2017-07-07T00:57:00.917Z,995.5
2017-07-07T00:57:21.229Z,995.5
2017-07-07T00:57:41.545Z,995.5
2017-07-07T00:58:01.890Z,995.5
2017-07-07T00:58:22.193Z,995.5
2017-07-07T00:58:42.446Z,995.5
2017-07-07T00:59:02.730Z,995.6
2017-07-07T00:59:22.985Z,995.6
2017-07-07T00:59:43.236Z,995.6
2017-07-07T01:00:03.514Z,995.6
2017-07-07T01:00:23.772Z,995.6
2017-07-07T01:00:44.075Z,995.6
2017-07-07T01:01:04.393Z,995.6
2017-07-07T01:01:24.723Z,995.6
2017-07-07T01:01:45.807Z,995.6
2017-07-07T01:02:06.063Z,995.7
2017-07-07T01:02:26.417Z,995.7
2017-07-07T01:02:46.679Z,995.7
2017-07-07T01:03:06.949Z,995.7
2017-07-07T01:03:27.214Z,995.7
2017-07-07T01:03:47.482Z,995.7
2017-07-07T01:04:07.795Z,995.7
2017-07-07T01:04:28.089Z,995.7
2017-07-07T01:04:48.366Z,995.7
2017-07-07T01:05:08.686Z,995.7
2017-07-07T01:05:28.963Z,995.7
2017-07-07T01:05:49.232Z,995.7
2017-07-07T01:06:09.506Z,995.6
2017-07-07T01:06:29.817Z,995.6
2017-07-07T01:06:50.083Z,995.7
2017-07-07T01:07:10.343Z,995.6
2017-07-07T01:07:30.612Z,995.7
2017-07-07T01:07:50.875Z,995.7
2017-07-07T01:08:11.315Z,995.6
2017-07-07T01:08:31.618Z,995.6
2017-07-07T01:08:51.944Z,995.6
2017-07-07T01:09:12.219Z,995.6
2017-07-07T01:09:32.492Z,995.6
2017-07-07T01:09:52.767Z,995.6
2017-07-07T01:10:13.129Z,995.6
2017-07-07T01:10:33.388Z,995.5
2017-07-07T01:10:53.645Z,995.5
2017-07-07T01:11:13.999Z,995.5
2017-07-07T01:11:34.362Z,995.5
2017-07-07T01:11:54.749Z,995.4
2017-07-07T01:12:15.015Z,995.4
2017-07-07T01:12:35.328Z,995.4
2017-07-07T01:12:55.606Z,995.4
2017-07-07T01:13:15.879Z,995.3
2017-07-07T01:13:36.146Z,995.3
2017-07-07T01:13:56.417Z,995.3
2017-07-07T01:14:16.727Z,995.2
2017-07-07T01:14:36.998Z,995.2
2017-07-07T01:14:57.262Z,995.2
2017-07-07T01:15:17.579Z,995.2
2017-07-07T01:15:37.857Z,995.2
2017-07-07T01:15:58.195Z,995.1
2017-07-07T01:16:18.497Z,995.1
2017-07-07T01:16:38.987Z,995.1
2017-07-07T01:16:59.301Z,995.1
2017-07-07T01:17:19.578Z,995.1
2017-07-07T01:17:39.926Z,995.1
2017-07-07T01:18:00.211Z,995.1
2017-07-07T01:18:20.574Z,995
2017-07-07T01:18:40.821Z,995
2017-07-07T01:19:01.088Z,995.1
2017-07-07T01:19:21.396Z,995
2017-07-07T01:19:41.671Z,995
2017-07-07T01:20:01.959Z,995.1
2017-07-07T01:20:22.274Z,995.1
2017-07-07T01:20:42.624Z,995.1
2017-07-07T01:21:02.969Z,995.1
2017-07-07T01:21:23.242Z,995.1
2017-07-07T01:21:43.584Z,995.2
2017-07-07T01:22:03.916Z,995.2
2017-07-07T01:22:24.226Z,995.2
2017-07-07T01:22:44.500Z,995.2
2017-07-07T01:23:04.810Z,995.2
2017-07-07T01:23:25.103Z,995.2
2017-07-07T01:23:45.366Z,995.2
2017-07-07T01:24:05.666Z,995.2
2017-07-07T01:24:25.985Z,995.2
2017-07-07T01:24:46.243Z,995.2
2017-07-07T01:25:06.549Z,995.2
2017-07-07T01:25:26.844Z,995.2
2017-07-07T01:25:47.158Z,995.2
2017-07-07T01:26:07.424Z,995.2
2017-07-07T01:26:27.751Z,995.2
2017-07-07T01:26:48.029Z,995.2
2017-07-07T01:27:08.331Z,995.2
2017-07-07T01:27:28.685Z,995.2
2017-07-07T01:27:49.031Z,995.2
2017-07-07T01:28:09.346Z,995.2
2017-07-07T01:28:29.654Z,995.1
2017-07-07T01:28:49.928Z,995.2
2017-07-07T01:29:10.203Z,995.1
2017-07-07T01:29:30.531Z,995.1
2017-07-07T01:29:50.829Z,995.1
2017-07-07T01:30:11.123Z,995.1
2017-07-07T01:30:31.388Z,995.1
2017-07-07T01:30:51.666Z,995.1
2017-07-07T01:31:11.931Z,995.1
2017-07-07T01:31:32.275Z,995.1
2017-07-07T01:31:52.550Z,995.1
2017-07-07T01:32:12.824Z,995.2
2017-07-07T01:32:33.102Z,995.1
2017-07-07T01:32:53.442Z,995.2
2017-07-07T01:33:13.711Z,995.2
2017-07-07T01:33:33.987Z,995.2
2017-07-07T01:33:54.249Z,995.2
2017-07-07T01:34:14.531Z,995.2
2017-07-07T01:34:34.809Z,995.3
2017-07-07T01:34:55.114Z,995.3
2017-07-07T01:35:15.512Z,995.3
2017-07-07T01:35:35.791Z,995.3
2017-07-07T01:35:56.071Z,995.4
2017-07-07T01:36:16.331Z,995.4
2017-07-07T01:36:36.652Z,995.4
2017-07-07T01:36:56.970Z,995.4
2017-07-07T01:37:17.316Z,995.4
2017-07-07T01:37:37.578Z,995.4
2017-07-07T01:37:57.924Z,995.5
2017-07-07T01:38:18.201Z,995.4
2017-07-07T01:38:38.469Z,995.4
2017-07-07T01:38:58.771Z,995.5
2017-07-07T01:39:19.030Z,995.5
2017-07-07T01:39:39.339Z,995.5
2017-07-07T01:39:59.596Z,995.5
2017-07-07T01:40:19.893Z,995.5
2017-07-07T01:40:40.170Z,995.6
2017-07-07T01:41:00.426Z,995.6
2017-07-07T01:41:20.686Z,995.6
2017-07-07T01:41:41.012Z,995.6
2017-07-07T01:42:01.302Z,995.7
2017-07-07T01:42:21.595Z,995.7
2017-07-07T01:42:41.880Z,995.7
2017-07-07T01:43:02.149Z,995.7
2017-07-07T01:43:22.452Z,995.8
2017-07-07T01:43:42.714Z,995.8
2017-07-07T01:44:03.049Z,995.8
2017-07-07T01:44:23.359Z,995.9
2017-07-07T01:44:43.633Z,995.9
2017-07-07T01:45:03.944Z,995.9
2017-07-07T01:45:24.297Z,995.9
2017-07-07T01:45:44.579Z,995.9
2017-07-07T01:46:04.858Z,995.9
2017-07-07T01:46:25.164Z,995.9
2017-07-07T01:46:45.424Z,996
2017-07-07T01:47:05.692Z,995.9
2017-07-07T01:47:25.961Z,995.9
2017-07-07T01:47:46.856Z,995.9
2017-07-07T01:48:07.157Z,995.9
2017-07-07T01:48:27.455Z,995.9
2017-07-07T01:48:47.726Z,995.9
2017-07-07T01:49:07.979Z,995.9
2017-07-07T01:49:28.251Z,995.9
2017-07-07T01:49:48.558Z,995.9
2017-07-07T01:50:08.882Z,995.9
2017-07-07T01:50:29.186Z,995.9
2017-07-07T01:50:49.444Z,995.9
2017-07-07T01:51:09.735Z,995.9
2017-07-07T01:51:29.996Z,995.9
2017-07-07T01:51:50.253Z,995.9
2017-07-07T01:52:10.528Z,995.9
2017-07-07T01:52:30.827Z,995.9
2017-07-07T01:52:51.106Z,995.8
2017-07-07T01:53:11.411Z,995.9
2017-07-07T01:53:31.680Z,995.8
2017-07-07T01:53:51.941Z,995.8
2017-07-07T01:54:12.193Z,995.8
2017-07-07T01:54:32.467Z,995.8
2017-07-07T01:54:52.728Z,995.7
2017-07-07T01:55:13.009Z,995.7
2017-07-07T01:55:33.280Z,995.7
2017-07-07T01:55:53.576Z,995.7
2017-07-07T01:56:13.855Z,995.7
2017-07-07T01:56:34.176Z,995.6
2017-07-07T01:56:54.456Z,995.6
2017-07-07T01:57:14.722Z,995.5
2017-07-07T01:57:35.026Z,995.6
2017-07-07T01:57:55.289Z,995.5
2017-07-07T01:58:15.628Z,995.5
2017-07-07T01:58:35.890Z,995.5
2017-07-07T01:58:56.144Z,995.5
2017-07-07T01:59:16.392Z,995.5
2017-07-07T01:59:36.653Z,995.5
2017-07-07T01:59:56.956Z,995.5
2017-07-07T02:00:17.225Z,995.5
2017-07-07T02:00:37.544Z,995.5
2017-07-07T02:00:57.815Z,995.5
2017-07-07T02:01:18.091Z,995.5
2017-07-07T02:01:38.429Z,995.5
2017-07-07T02:01:58.744Z,995.5
2017-07-07T02:02:19.017Z,995.5
2017-07-07T02:02:39.276Z,995.5
2017-07-07T02:02:59.585Z,995.5
2017-07-07T02:03:19.842Z,995.5
2017-07-07T02:03:40.167Z,995.5
2017-07-07T02:04:00.504Z,995.5
2017-07-07T02:04:20.819Z,995.6
2017-07-07T02:04:41.135Z,995.5
2017-07-07T02:05:01.405Z,995.5
2017-07-07T02:05:21.697Z,995.5
2017-07-07T02:05:41.963Z,995.5
2017-07-07T02:06:02.238Z,995.5
2017-07-07T02:06:22.565Z,995.5
2017-07-07T02:06:42.837Z,995.5
2017-07-07T02:07:03.092Z,995.4
2017-07-07T02:07:23.369Z,995.4
2017-07-07T02:07:43.756Z,995.3
2017-07-07T02:08:04.011Z,995.3
2017-07-07T02:08:24.300Z,995.3
2017-07-07T02:08:44.608Z,995.3
2017-07-07T02:09:04.922Z,995.3
2017-07-07T02:09:25.177Z,995.2
2017-07-07T02:09:45.485Z,995.3
2017-07-07T02:10:05.749Z,995.3
2017-07-07T02:10:26.028Z,995.3
2017-07-07T02:10:46.304Z,995.3
2017-07-07T02:11:06.585Z,995.4
2017-07-07T02:11:26.887Z,995.4
2017-07-07T02:11:47.214Z,995.4
2017-07-07T02:12:07.488Z,995.4
2017-07-07T02:12:27.792Z,995.4
2017-07-07T02:12:48.056Z,995.4
2017-07-07T02:13:08.332Z,995.4
2017-07-07T02:13:28.597Z,995.4
2017-07-07T02:13:48.862Z,995.4
2017-07-07T02:14:09.134Z,995.4
2017-07-07T02:14:29.405Z,995.4
2017-07-07T02:14:49.668Z,995.4
2017-07-07T02:15:09.948Z,995.4
2017-07-07T02:15:30.200Z,995.4
2017-07-07T02:15:50.466Z,995.4
2017-07-07T02:16:10.721Z,995.4
2017-07-07T02:16:30.979Z,995.4
2017-07-07T02:16:51.901Z,995.3
2017-07-07T02:17:12.152Z,995.3
2017-07-07T02:17:32.464Z,995.3
2017-07-07T02:17:52.764Z,995.3
2017-07-07T02:18:13.050Z,995.3
2017-07-07T02:18:33.309Z,995.2
2017-07-07T02:18:53.639Z,995.3
2017-07-07T02:19:13.935Z,995.3
2017-07-07T02:19:34.201Z,995.3
2017-07-07T02:19:54.505Z,995.3
2017-07-07T02:20:14.798Z,995.3
2017-07-07T02:20:35.090Z,995.3
2017-07-07T02:20:55.361Z,995.3
2017-07-07T02:21:15.688Z,995.3
2017-07-07T02:21:36.033Z,995.3
2017-07-07T02:21:56.306Z,995.3
2017-07-07T02:22:16.573Z,995.3
2017-07-07T02:22:36.910Z,995.3
2017-07-07T02:22:57.268Z,995.3
2017-07-07T02:23:17.534Z,995.2
2017-07-07T02:23:37.815Z,995.3
2017-07-07T02:23:58.101Z,995.3
2017-07-07T02:24:18.347Z,995.3
2017-07-07T02:24:38.639Z,995.3
2017-07-07T02:24:58.907Z,995.3
2017-07-07T02:25:19.173Z,995.3
2017-07-07T02:25:39.440Z,995.3
2017-07-07T02:25:59.707Z,995.4
2017-07-07T02:26:19.960Z,995.4
2017-07-07T02:26:40.219Z,995.4
2017-07-07T02:27:00.489Z,995.4
2017-07-07T02:27:20.770Z,995.4
2017-07-07T02:27:41.014Z,995.4
2017-07-07T02:28:01.331Z,995.4
2017-07-07T02:28:21.593Z,995.4
2017-07-07T02:28:41.863Z,995.4
2017-07-07T02:29:02.128Z,995.4
2017-07-07T02:29:22.437Z,995.5
2017-07-07T02:29:42.689Z,995.4
2017-07-07T02:30:02.953Z,995.4
2017-07-07T02:30:23.291Z,995.4
2017-07-07T02:30:43.624Z,995.4
2017-07-07T02:31:03.875Z,995.4
2017-07-07T02:31:24.178Z,995.4
2017-07-07T02:31:44.472Z,995.4
2017-07-07T02:32:04.761Z,995.4
2017-07-07T02:32:25.031Z,995.4
2017-07-07T02:32:45.354Z,995.4
2017-07-07T02:33:05.633Z,995.4
2017-07-07T02:33:25.968Z,995.4
2017-07-07T02:33:46.321Z,995.4
2017-07-07T02:34:06.589Z,995.4
2017-07-07T02:34:26.865Z,995.4
2017-07-07T02:34:47.138Z,995.4
2017-07-07T02:35:07.457Z,995.4
2017-07-07T02:35:27.754Z,995.4
2017-07-07T02:35:48.065Z,995.4
2017-07-07T02:36:08.375Z,995.4
2017-07-07T02:36:28.732Z,995.4
2017-07-07T02:36:49.013Z,995.4
2017-07-07T02:37:09.280Z,995.4
2017-07-07T02:37:29.549Z,995.4
2017-07-07T02:37:49.895Z,995.4
2017-07-07T02:38:10.159Z,995.4
2017-07-07T02:38:30.465Z,995.4
2017-07-07T02:38:50.747Z,995.4
2017-07-07T02:39:11.067Z,995.4
2017-07-07T02:39:31.410Z,995.4
2017-07-07T02:39:51.804Z,995.4
2017-07-07T02:40:12.071Z,995.4
2017-07-07T02:40:32.400Z,995.4
2017-07-07T02:40:52.733Z,995.4
2017-07-07T02:41:13.061Z,995.4
2017-07-07T02:41:33.336Z,995.4
2017-07-07T02:41:53.609Z,995.4
2017-07-07T02:42:13.883Z,995.3
2017-07-07T02:42:34.141Z,995.3
2017-07-07T02:42:54.465Z,995.3
2017-07-07T02:43:14.740Z,995.3
2017-07-07T02:43:34.994Z,995.3
2017-07-07T02:43:55.342Z,995.3
2017-07-07T02:44:15.624Z,995.3
2017-07-07T02:44:35.901Z,995.3
2017-07-07T02:44:56.212Z,995.3
2017-07-07T02:45:16.482Z,995.3
2017-07-07T02:45:36.757Z,995.3
2017-07-07T02:45:57.007Z,995.3
2017-07-07T02:46:17.449Z,995.3
2017-07-07T02:46:37.791Z,995.4
2017-07-07T02:46:58.087Z,995.4
2017-07-07T02:47:18.406Z,995.3
2017-07-07T02:47:38.777Z,995.3
2017-07-07T02:47:59.085Z,995.3
2017-07-07T02:48:19.395Z,995.3
2017-07-07T02:48:39.711Z,995.4
2017-07-07T02:49:00.029Z,995.4
2017-07-07T02:49:20.308Z,995.4
2017-07-07T02:49:40.614Z,995.3
2017-07-07T02:50:01.043Z,995.3
2017-07-07T02:50:21.298Z,995.4
2017-07-07T02:50:41.558Z,995.3
2017-07-07T02:51:01.855Z,995.4
2017-07-07T02:51:22.178Z,995.3
2017-07-07T02:51:42.537Z,995.3
2017-07-07T02:52:02.817Z,995.3
2017-07-07T02:52:23.074Z,995.3
2017-07-07T02:52:43.383Z,995.3
2017-07-07T02:53:03.654Z,995.3
2017-07-07T02:53:23.965Z,995.3
2017-07-07T02:53:44.228Z,995.3
2017-07-07T02:54:04.506Z,995.3
2017-07-07T02:54:24.853Z,995.3
2017-07-07T02:54:45.122Z,995.2
2017-07-07T02:55:05.388Z,995.3
2017-07-07T02:55:25.653Z,995.3
2017-07-07T02:55:45.911Z,995.2
2017-07-07T02:56:06.232Z,995.2
2017-07-07T02:56:26.598Z,995.2
2017-07-07T02:56:46.869Z,995.2
2017-07-07T02:57:07.146Z,995.2
2017-07-07T02:57:27.410Z,995.2
2017-07-07T02:57:47.704Z,995.2
2017-07-07T02:58:07.962Z,995.2
2017-07-07T02:58:28.269Z,995.2
2017-07-07T02:58:48.547Z,995.2
2017-07-07T02:59:08.833Z,995.2
2017-07-07T02:59:29.094Z,995.2
2017-07-07T02:59:49.418Z,995.1
2017-07-07T03:00:09.775Z,995.1
2017-07-07T03:00:30.049Z,995.1
2017-07-07T03:00:50.326Z,995.1
2017-07-07T03:01:10.631Z,995.1
2017-07-07T03:01:30.889Z,995.2
2017-07-07T03:01:51.144Z,995.1
2017-07-07T03:02:11.410Z,995.1
2017-07-07T03:02:31.760Z,995.1
2017-07-07T03:02:52.084Z,995.1
2017-07-07T03:03:12.350Z,995.1
2017-07-07T03:03:32.679Z,995.1
2017-07-07T03:03:52.951Z,995.1
2017-07-07T03:04:13.224Z,995
2017-07-07T03:04:33.488Z,995.1
2017-07-07T03:04:53.792Z,995
2017-07-07T03:05:14.070Z,995
2017-07-07T03:05:34.421Z,995
2017-07-07T03:05:54.681Z,995
2017-07-07T03:06:15.034Z,995.1
2017-07-07T03:06:35.289Z,995.1
2017-07-07T03:06:55.601Z,995
2017-07-07T03:07:15.905Z,995
2017-07-07T03:07:36.188Z,995.1
2017-07-07T03:07:56.455Z,995
2017-07-07T03:08:16.733Z,995
2017-07-07T03:08:37.060Z,995
2017-07-07T03:08:57.386Z,995
2017-07-07T03:09:17.692Z,995
2017-07-07T03:09:37.953Z,995.1
2017-07-07T03:09:58.264Z,995
2017-07-07T03:10:18.589Z,995
2017-07-07T03:10:38.848Z,995
2017-07-07T03:10:59.119Z,995.1
2017-07-07T03:11:19.386Z,995.1
2017-07-07T03:11:39.662Z,995.1
2017-07-07T03:11:59.992Z,995.1
2017-07-07T03:12:20.254Z,995
2017-07-07T03:12:40.551Z,995
2017-07-07T03:13:00.861Z,995
2017-07-07T03:13:21.136Z,995
2017-07-07T03:13:41.382Z,995
2017-07-07T03:14:01.658Z,995
2017-07-07T03:14:21.946Z,995
2017-07-07T03:14:42.261Z,995
2017-07-07T03:15:02.570Z,995
2017-07-07T03:15:22.843Z,995
2017-07-07T03:15:43.116Z,994.9
2017-07-07T03:16:03.402Z,994.9
2017-07-07T03:16:23.663Z,994.9
2017-07-07T03:16:43.923Z,994.9
2017-07-07T03:17:04.187Z,994.9
2017-07-07T03:17:24.447Z,994.9
2017-07-07T03:17:44.786Z,994.9
2017-07-07T03:18:05.107Z,994.9
2017-07-07T03:18:25.380Z,994.9
2017-07-07T03:18:45.642Z,994.9
2017-07-07T03:19:05.899Z,994.9
2017-07-07T03:19:26.213Z,994.9
2017-07-07T03:19:46.544Z,994.9
2017-07-07T03:20:06.826Z,994.9
2017-07-07T03:20:27.093Z,994.9
2017-07-07T03:20:47.436Z,994.9
2017-07-07T03:21:07.710Z,994.9
2017-07-07T03:23:36.753Z,994.9
2017-07-07T03:23:57.328Z,994.9
2017-07-07T03:24:18.332Z,994.9
2017-07-07T03:24:38.643Z,994.9
2017-07-07T03:24:58.894Z,994.9
2017-07-07T03:25:19.205Z,994.9
2017-07-07T03:25:39.553Z,994.9
2017-07-07T03:25:59.865Z,994.9
2017-07-07T03:26:20.212Z,994.9
2017-07-07T03:26:40.497Z,994.9
2017-07-07T03:27:00.767Z,995
2017-07-07T03:27:21.079Z,994.9
2017-07-07T03:27:41.366Z,994.9
2017-07-07T03:28:01.655Z,994.9
2017-07-07T03:28:21.968Z,995
2017-07-07T03:28:42.301Z,994.9
2017-07-07T03:29:02.610Z,994.9
2017-07-07T03:29:22.916Z,994.9
2017-07-07T03:29:43.194Z,994.9
2017-07-07T03:30:03.481Z,994.9
2017-07-07T03:30:23.827Z,994.9
2017-07-07T03:30:44.103Z,994.9
2017-07-07T03:31:04.370Z,994.9
2017-07-07T03:31:24.633Z,994.9
2017-07-07T03:31:44.917Z,994.9
2017-07-07T03:32:05.227Z,994.9
2017-07-07T03:32:25.495Z,994.9
2017-07-07T03:32:45.753Z,994.9
2017-07-07T03:33:06.064Z,994.9
2017-07-07T03:33:26.335Z,994.9
2017-07-07T03:33:46.622Z,994.9
2017-07-07T03:34:06.888Z,994.9
2017-07-07T03:34:27.150Z,994.9
2017-07-07T03:34:47.425Z,994.9
2017-07-07T03:35:07.709Z,994.9
2017-07-07T03:35:27.977Z,994.9
2017-07-07T03:35:48.275Z,995
2017-07-07T03:36:08.592Z,994.9
2017-07-07T03:36:28.909Z,994.9
2017-07-07T03:36:49.177Z,994.9
2017-07-07T03:37:09.448Z,995
2017-07-07T03:37:29.722Z,995
2017-07-07T03:37:50.045Z,994.9
2017-07-07T03:38:10.395Z,994.9
2017-07-07T03:38:30.667Z,994.9
2017-07-07T03:38:50.927Z,994.9
2017-07-07T03:39:11.188Z,994.9
2017-07-07T03:39:31.469Z,994.9
2017-07-07T03:39:51.723Z,994.9
2017-07-07T03:40:11.982Z,994.9
2017-07-07T03:40:32.261Z,994.9
2017-07-07T03:40:52.573Z,994.9
2017-07-07T03:41:12.846Z,994.9
2017-07-07T03:41:33.109Z,994.9
2017-07-07T03:41:53.444Z,994.9
2017-07-07T03:42:13.715Z,994.9
2017-07-07T03:42:33.980Z,994.9
2017-07-07T03:42:54.250Z,994.9
2017-07-07T03:43:14.637Z,994.9
2017-07-07T03:43:34.930Z,994.9
2017-07-07T03:43:55.193Z,994.9
2017-07-07T03:44:15.504Z,994.9
2017-07-07T03:44:35.838Z,994.9
2017-07-07T03:44:56.104Z,994.8
2017-07-07T03:45:16.135Z,994.9
2017-07-07T03:45:36.455Z,994.9
2017-07-07T03:45:56.726Z,994.9
2017-07-07T03:46:17.084Z,994.9
2017-07-07T03:46:37.361Z,994.9
2017-07-07T03:46:57.673Z,994.9
2017-07-07T03:47:17.949Z,994.9
2017-07-07T03:47:38.246Z,994.8
2017-07-07T03:47:58.519Z,994.8
2017-07-07T03:48:18.775Z,994.8
2017-07-07T03:48:39.043Z,994.8
2017-07-07T03:48:59.390Z,994.8
2017-07-07T03:49:19.652Z,994.8
2017-07-07T03:49:39.922Z,994.8
2017-07-07T03:50:00.240Z,994.8
2017-07-07T03:50:20.502Z,994.8
2017-07-07T03:50:40.786Z,994.8
2017-07-07T03:51:01.058Z,994.8
2017-07-07T03:51:21.389Z,994.8
2017-07-07T03:51:41.672Z,994.8
2017-07-07T03:52:01.992Z,994.8
2017-07-07T03:52:22.260Z,994.8
2017-07-07T03:52:42.616Z,994.7
2017-07-07T03:53:02.983Z,994.7
2017-07-07T03:53:23.301Z,994.7
2017-07-07T03:53:43.625Z,994.7
2017-07-07T03:54:03.887Z,994.7
2017-07-07T03:54:24.176Z,994.7
2017-07-07T03:54:44.496Z,994.7
2017-07-07T03:55:04.771Z,994.7
2017-07-07T03:55:25.081Z,994.7
2017-07-07T03:55:45.361Z,994.7
2017-07-07T03:56:05.635Z,994.7
2017-07-07T03:56:25.909Z,994.7
2017-07-07T03:56:46.183Z,994.7
2017-07-07T03:57:06.441Z,994.7
2017-07-07T03:57:27.276Z,994.7
2017-07-07T03:57:47.587Z,994.7
2017-07-07T03:58:07.907Z,994.7
2017-07-07T03:58:28.182Z,994.8
2017-07-07T03:58:48.464Z,994.8
2017-07-07T03:59:08.722Z,994.7
2017-07-07T03:59:29.042Z,994.7
2017-07-07T03:59:49.314Z,994.8
2017-07-07T04:00:09.582Z,994.8
2017-07-07T04:00:29.847Z,994.8
2017-07-07T04:00:50.120Z,994.8
2017-07-07T04:01:10.398Z,994.8
2017-07-07T04:01:30.701Z,994.8
2017-07-07T04:01:51.018Z,994.8
2017-07-07T04:02:11.279Z,994.8
2017-07-07T04:02:31.551Z,994.9
2017-07-07T04:02:51.821Z,994.8
2017-07-07T04:03:12.127Z,994.9
2017-07-07T04:03:32.392Z,994.8
2017-07-07T04:03:52.711Z,994.8
2017-07-07T04:04:13.047Z,994.9
2017-07-07T04:04:33.403Z,994.9
2017-07-07T04:04:53.671Z,994.9
2017-07-07T04:05:13.952Z,994.9
2017-07-07T04:05:34.272Z,994.9
2017-07-07T04:05:54.571Z,994.9
2017-07-07T04:06:14.834Z,994.9
2017-07-07T04:06:35.119Z,994.9
2017-07-07T04:06:55.433Z,994.9
2017-07-07T04:07:15.710Z,995
2017-07-07T04:07:36.018Z,995
2017-07-07T04:07:56.278Z,995
2017-07-07T04:08:16.564Z,995
2017-07-07T04:08:36.826Z,995
2017-07-07T04:08:57.100Z,995
2017-07-07T04:09:17.374Z,995
2017-07-07T04:09:37.691Z,995.1
2017-07-07T04:09:58.010Z,995.1
2017-07-07T04:10:18.278Z,995.1
2017-07-07T04:10:38.529Z,995.1
2017-07-07T04:10:58.807Z,995.1
2017-07-07T04:11:19.141Z,995.1
2017-07-07T04:11:39.413Z,995.1
2017-07-07T04:11:59.687Z,995.1
2017-07-07T04:12:20.011Z,995.1
2017-07-07T04:12:40.276Z,995.1
2017-07-07T04:13:00.560Z,995.1
2017-07-07T04:13:20.841Z,995.1
2017-07-07T04:13:41.125Z,995.2
2017-07-07T04:14:01.402Z,995.2
2017-07-07T04:14:21.673Z,995.2
2017-07-07T04:14:42.018Z,995.2
2017-07-07T04:15:02.339Z,995.2
2017-07-07T04:15:22.626Z,995.2
2017-07-07T04:15:42.889Z,995.2
2017-07-07T04:16:03.207Z,995.2
2017-07-07T04:16:23.521Z,995.2
2017-07-07T04:16:43.838Z,995.3
2017-07-07T04:17:04.211Z,995.3
2017-07-07T04:17:24.576Z,995.3
2017-07-07T04:17:44.913Z,995.3
2017-07-07T04:18:05.180Z,995.3
2017-07-07T04:18:25.510Z,995.3
2017-07-07T04:18:45.762Z,995.4
2017-07-07T04:19:06.028Z,995.4
2017-07-07T04:19:26.427Z,995.4
2017-07-07T04:19:46.687Z,995.4
2017-07-07T04:20:06.967Z,995.4
2017-07-07T04:20:27.221Z,995.4
2017-07-07T04:20:47.493Z,995.4
2017-07-07T04:21:07.800Z,995.4
2017-07-07T04:21:28.107Z,995.4
2017-07-07T04:21:48.411Z,995.4
2017-07-07T04:22:08.680Z,995.4
2017-07-07T04:22:28.995Z,995.4
2017-07-07T04:22:49.326Z,995.5
2017-07-07T04:23:09.688Z,995.5
2017-07-07T04:23:29.951Z,995.5
2017-07-07T04:23:50.243Z,995.5
2017-07-07T04:24:10.555Z,995.5
2017-07-07T04:24:30.848Z,995.5